createdAt,value
2019-05-07T00:00:35.719Z,47.05
2019-05-07T00:03:03.279Z,44.20
2019-05-07T00:05:29.791Z,43.50
2019-05-07T00:07:55.968Z,45.21
2019-05-07T00:10:24.685Z,46.11
2019-05-07T00:12:52.018Z,43.41
2019-05-07T00:15:18.424Z,44.75
2019-05-07T00:17:44.583Z,43.84
2019-05-07T00:20:12.797Z,43.64
2019-05-07T00:22:39.101Z,44.07
2019-05-07T00:25:05.655Z,43.74
2019-05-07T00:27:32.164Z,42.75
2019-05-07T00:29:58.434Z,43.57
2019-05-07T00:32:24.590Z,44.13
2019-05-07T00:34:54.296Z,45.73
2019-05-07T00:37:25.035Z,42.83
2019-05-07T00:40:09.910Z,41.97
2019-05-07T00:42:54.413Z,43.38
2019-05-07T00:45:23.849Z,44.23
2019-05-07T00:47:52.105Z,43.38
2019-05-07T00:50:23.156Z,42.77
2019-05-07T00:52:49.350Z,43.22
2019-05-07T00:55:15.533Z,44.92
2019-05-07T00:57:42.845Z,41.34
2019-05-07T01:00:09.835Z,42.54
2019-05-07T01:02:35.984Z,44.11
2019-05-07T01:05:03.146Z,43.32
2019-05-07T01:07:29.601Z,42.71
2019-05-07T01:09:58.615Z,44.37
2019-05-07T01:12:24.794Z,44.19
2019-05-07T01:14:52.862Z,43.47
2019-05-07T01:17:19.154Z,42.45
2019-05-07T01:19:45.335Z,44.56
2019-05-07T01:22:12.631Z,42.94
2019-05-07T01:24:39.007Z,42.82
2019-05-07T01:27:05.280Z,44.02
2019-05-07T01:29:32.879Z,42.49
2019-05-07T01:32:02.989Z,42.60
2019-05-07T01:34:32.265Z,41.96
2019-05-07T01:36:58.647Z,41.15
2019-05-07T01:39:24.805Z,41.70
2019-05-07T01:41:52.441Z,42.51
2019-05-07T01:44:18.794Z,39.59
2019-05-07T01:46:44.976Z,43.57
2019-05-07T01:49:12.615Z,43.77
2019-05-07T01:51:39.143Z,41.67
2019-05-07T01:54:05.299Z,41.64
2019-05-07T01:56:33.148Z,43.05
2019-05-07T01:58:59.596Z,43.06
2019-05-07T02:01:25.748Z,42.31
2019-05-07T02:04:02.646Z,42.85
2019-05-07T02:06:36.236Z,41.49
2019-05-07T02:09:13.013Z,43.20
2019-05-07T02:11:42.339Z,42.55
2019-05-07T02:14:08.772Z,41.84
2019-05-07T02:16:35.063Z,42.55
2019-05-07T02:19:02.176Z,42.78
2019-05-07T02:21:28.728Z,40.51
2019-05-07T02:23:54.921Z,42.95
2019-05-07T02:26:22.590Z,41.63
2019-05-07T02:28:49.165Z,40.44
2019-05-07T02:31:15.383Z,42.21
2019-05-07T02:33:43.438Z,43.10
2019-05-07T02:36:09.628Z,42.06
2019-05-07T02:38:43.849Z,41.22
2019-05-07T02:41:25.386Z,41.64
2019-05-07T02:43:53.689Z,40.80
2019-05-07T02:46:37.954Z,42.25
2019-05-07T02:49:23.980Z,41.59
2019-05-07T02:52:08.366Z,43.67
2019-05-07T02:54:36.467Z,42.95
2019-05-07T02:57:03.323Z,40.73
2019-05-07T02:59:29.713Z,41.47
2019-05-07T03:01:56.043Z,42.80
2019-05-07T03:04:25.159Z,42.59
2019-05-07T03:06:50.364Z,40.85
2019-05-07T03:09:16.671Z,43.17
2019-05-07T03:11:43.584Z,41.76
2019-05-07T03:14:10.021Z,42.24
2019-05-07T03:16:43.737Z,41.37
2019-05-07T03:19:04.414Z,40.09
2019-05-07T03:21:48.838Z,39.04
2019-05-07T03:24:25.478Z,37.87
2019-05-07T03:26:53.597Z,41.04
2019-05-07T03:29:24.028Z,41.98
2019-05-07T03:31:56.336Z,39.11
2019-05-07T03:34:46.524Z,41.96
2019-05-07T03:37:13.663Z,39.62
2019-05-07T03:39:42.963Z,40.50
2019-05-07T03:42:08.139Z,40.16
2019-05-07T03:44:48.050Z,40.20
2019-05-07T03:47:15.646Z,39.10
2019-05-07T03:49:42.988Z,41.39
2019-05-07T03:52:09.514Z,38.75
2019-05-07T03:54:35.679Z,39.66
2019-05-07T03:57:10.349Z,39.42
2019-05-07T03:59:29.973Z,40.00
2019-05-07T04:01:56.149Z,40.83
2019-05-07T04:04:23.112Z,37.95
2019-05-07T04:06:49.604Z,37.73
2019-05-07T04:09:15.793Z,36.16
2019-05-07T04:11:43.371Z,38.60
2019-05-07T04:14:09.784Z,38.91
2019-05-07T04:16:36.071Z,38.63
2019-05-07T04:19:03.927Z,37.31
2019-05-07T04:21:30.247Z,37.46
2019-05-07T04:24:12.853Z,39.68
2019-05-07T04:26:42.863Z,37.24
2019-05-07T04:29:17.962Z,37.76
2019-05-07T04:31:44.184Z,38.88
2019-05-07T04:34:13.390Z,37.76
2019-05-07T04:36:43.524Z,36.86
2019-05-07T04:39:12.951Z,38.66
2019-05-07T04:41:38.134Z,38.18
2019-05-07T04:44:04.309Z,38.99
2019-05-07T04:46:33.249Z,39.11
2019-05-07T04:48:58.613Z,38.24
2019-05-07T04:51:26.781Z,36.94
2019-05-07T04:53:54.039Z,35.77
2019-05-07T04:56:23.547Z,37.62
2019-05-07T04:58:48.790Z,37.45
2019-05-07T05:01:16.893Z,40.68
2019-05-07T05:03:44.087Z,40.32
2019-05-07T05:06:10.256Z,36.96
2019-05-07T05:08:37.372Z,35.57
2019-05-07T05:11:03.702Z,35.52
2019-05-07T05:13:32.201Z,38.33
2019-05-07T05:16:01.933Z,38.22
2019-05-07T05:18:27.997Z,39.21
2019-05-07T05:21:04.722Z,37.84
2019-05-07T05:23:32.821Z,36.93
2019-05-07T05:25:59.030Z,37.79
2019-05-07T05:28:25.319Z,36.71
2019-05-07T05:31:05.231Z,37.89
2019-05-07T05:33:32.380Z,37.34
2019-05-07T05:35:58.699Z,38.15
2019-05-07T05:38:24.881Z,38.31
2019-05-07T05:40:52.023Z,36.74
2019-05-07T05:43:22.353Z,37.77
2019-05-07T05:45:56.717Z,36.97
2019-05-07T05:48:22.907Z,36.55
2019-05-07T05:50:53.422Z,35.66
2019-05-07T05:53:38.932Z,36.70
2019-05-07T05:56:23.468Z,36.50
2019-05-07T05:58:57.367Z,35.04
2019-05-07T06:01:25.451Z,35.83
2019-05-07T06:03:59.483Z,38.73
2019-05-07T06:06:38.204Z,38.04
2019-05-07T06:09:21.924Z,37.78
2019-05-07T06:12:06.632Z,38.11
2019-05-07T06:14:34.770Z,34.52
2019-05-07T06:17:02.855Z,36.13
2019-05-07T06:19:39.511Z,34.87
2019-05-07T06:22:16.475Z,35.85
2019-05-07T06:24:46.001Z,35.57
2019-05-07T06:27:12.346Z,34.23
2019-05-07T06:29:39.663Z,35.14
2019-05-07T06:32:12.144Z,35.59
2019-05-07T06:34:41.729Z,36.31
2019-05-07T06:37:06.561Z,36.36
2019-05-07T06:39:37.440Z,35.52
2019-05-07T06:42:22.261Z,34.69
2019-05-07T06:45:02.950Z,35.69
2019-05-07T06:47:31.771Z,37.25
2019-05-07T06:49:57.431Z,35.53
2019-05-07T06:52:23.738Z,36.18
2019-05-07T06:54:52.254Z,35.46
2019-05-07T06:57:17.979Z,35.71
2019-05-07T06:59:46.217Z,34.49
2019-05-07T07:02:22.940Z,35.02
2019-05-07T07:04:51.870Z,34.68
2019-05-07T07:07:29.829Z,36.43
2019-05-07T07:10:02.675Z,34.04
2019-05-07T07:12:33.140Z,36.39
2019-05-07T07:14:59.137Z,34.42
2019-05-07T07:17:25.333Z,35.35
2019-05-07T07:19:52.345Z,35.74
2019-05-07T07:22:18.779Z,35.99
2019-05-07T07:24:45.072Z,34.98
2019-05-07T07:27:13.168Z,33.05
2019-05-07T07:29:46.953Z,35.13
2019-05-07T07:32:15.083Z,35.19
2019-05-07T07:34:43.152Z,36.69
2019-05-07T07:37:20.209Z,33.72
2019-05-07T07:39:46.480Z,34.18
2019-05-07T07:42:12.653Z,33.84
2019-05-07T07:44:38.864Z,33.94
2019-05-07T07:47:05.141Z,34.66
2019-05-07T07:49:32.994Z,34.41
2019-05-07T07:51:59.458Z,33.14
2019-05-07T07:54:25.629Z,34.17
2019-05-07T07:56:56.796Z,32.63
2019-05-07T08:02:12.450Z,34.32
2019-05-07T08:04:38.794Z,36.22
2019-05-07T08:07:06.021Z,35.58
2019-05-07T08:09:34.004Z,34.28
2019-05-07T08:12:02.579Z,34.82
2019-05-07T08:18:11.947Z,34.36
2019-05-07T08:20:38.400Z,32.24
2019-05-07T08:23:04.564Z,34.83
2019-05-07T08:29:18.862Z,34.27
2019-05-07T08:31:46.935Z,33.69
2019-05-07T08:34:23.877Z,34.37
2019-05-07T08:36:50.159Z,35.87
2019-05-07T08:39:16.340Z,33.68
2019-05-07T08:41:42.658Z,32.47
2019-05-07T08:44:25.864Z,32.14
2019-05-07T08:47:02.851Z,31.50
2019-05-07T08:57:42.058Z,32.36
2019-05-07T09:00:09.124Z,31.10
2019-05-07T09:02:35.283Z,31.31
2019-05-07T09:05:02.932Z,31.86
2019-05-07T09:07:29.504Z,31.86
2019-05-07T09:09:55.665Z,29.56
2019-05-07T09:12:22.957Z,29.27
2019-05-07T09:14:49.417Z,26.84
2019-05-07T09:17:15.592Z,28.22
2019-05-07T09:19:50.813Z,28.99
2019-05-07T09:22:12.504Z,31.18
2019-05-07T09:24:38.504Z,28.42
2019-05-07T09:27:23.129Z,27.40
2019-05-07T09:29:52.008Z,30.17
2019-05-07T09:32:22.622Z,29.93
2019-05-07T09:34:52.044Z,30.95
2019-05-07T09:37:26.228Z,32.72
2019-05-07T09:39:52.423Z,29.52
2019-05-07T09:42:18.681Z,29.04
2019-05-07T09:44:44.838Z,30.41
2019-05-07T09:47:12.891Z,30.88
2019-05-07T09:49:39.202Z,31.35
2019-05-07T09:52:06.091Z,31.60
2019-05-07T09:54:32.497Z,29.45
2019-05-07T09:56:58.627Z,32.46
2019-05-07T09:59:24.790Z,29.37
2019-05-07T10:01:51.178Z,29.57
2019-05-07T10:04:17.336Z,28.73
2019-05-07T10:06:43.513Z,29.60
2019-05-07T10:09:11.877Z,29.57
2019-05-07T10:11:48.807Z,29.66
2019-05-07T10:14:15.008Z,28.29
2019-05-07T10:16:43.091Z,28.18
2019-05-07T10:19:09.347Z,28.01
2019-05-07T10:21:35.543Z,28.03
2019-05-07T10:24:02.374Z,27.05
2019-05-07T10:26:28.765Z,31.17
2019-05-07T10:28:54.965Z,31.15
2019-05-07T10:31:22.302Z,29.51
2019-05-07T10:33:48.692Z,29.24
2019-05-07T10:36:14.880Z,30.81
2019-05-07T10:38:41.037Z,29.79
2019-05-07T10:41:07.236Z,30.64
2019-05-07T10:43:33.419Z,29.07
2019-05-07T10:46:18.349Z,28.61
2019-05-07T10:48:49.002Z,29.29
2019-05-07T10:51:15.160Z,29.56
2019-05-07T10:53:42.434Z,29.25
2019-05-07T10:56:08.937Z,28.96
2019-05-07T10:58:35.108Z,31.03
2019-05-07T11:01:02.886Z,29.62
2019-05-07T11:03:29.478Z,31.15
2019-05-07T11:05:55.670Z,30.50
2019-05-07T11:08:22.239Z,30.92
2019-05-07T11:10:48.597Z,27.95
2019-05-07T11:13:14.865Z,27.86
2019-05-07T11:15:43.055Z,28.31
2019-05-07T11:18:12.645Z,26.88
2019-05-07T11:20:47.329Z,27.82
2019-05-07T11:23:07.047Z,28.71
2019-05-07T11:25:33.343Z,28.36
2019-05-07T11:27:59.499Z,30.43
2019-05-07T11:30:25.875Z,29.81
2019-05-07T11:32:52.441Z,30.51
2019-05-07T11:35:18.946Z,30.50
2019-05-07T11:37:45.095Z,31.33
2019-05-07T11:40:13.071Z,30.57
2019-05-07T11:42:58.000Z,31.44
2019-05-07T11:45:26.153Z,30.02
2019-05-07T11:47:52.454Z,27.65
2019-05-07T11:50:22.624Z,29.81
2019-05-07T11:52:56.072Z,29.79
2019-05-07T11:55:22.487Z,30.36
2019-05-07T11:57:48.644Z,32.16
2019-05-07T12:00:18.555Z,31.19
2019-05-07T12:02:47.266Z,32.57
2019-05-07T12:05:12.955Z,31.29
2019-05-07T12:07:39.144Z,31.79
2019-05-07T12:10:05.335Z,32.08
2019-05-07T12:12:32.574Z,30.35
2019-05-07T12:14:59.038Z,31.16
2019-05-07T12:17:25.307Z,30.48
2019-05-07T12:19:52.658Z,30.42
2019-05-07T12:22:30.383Z,31.90
2019-05-07T12:24:56.533Z,34.19
2019-05-07T12:27:23.092Z,33.74
2019-05-07T12:29:49.532Z,32.26
2019-05-07T12:32:17.616Z,31.61
2019-05-07T12:34:48.220Z,30.75
2019-05-07T12:37:14.403Z,32.47
2019-05-07T12:39:42.349Z,33.23
2019-05-07T12:42:08.777Z,33.00
2019-05-07T12:44:35.016Z,33.23
2019-05-07T12:47:01.750Z,31.12
2019-05-07T12:49:28.066Z,32.66
2019-05-07T12:51:56.166Z,33.54
2019-05-07T12:54:24.256Z,33.48
2019-05-07T12:56:52.029Z,34.50
2019-05-07T12:59:18.370Z,34.00
2019-05-07T13:01:46.454Z,33.05
2019-05-07T13:04:17.051Z,30.68
2019-05-07T13:06:47.935Z,29.45
2019-05-07T13:09:14.232Z,30.09
2019-05-07T13:11:42.397Z,28.34
2019-05-07T13:14:08.567Z,29.94
2019-05-07T13:16:34.725Z,30.07
2019-05-07T13:19:01.885Z,30.84
2019-05-07T13:21:28.383Z,29.95
2019-05-07T13:23:54.567Z,31.83
2019-05-07T13:26:24.363Z,32.08
2019-05-07T13:28:48.935Z,33.53
2019-05-07T13:31:18.117Z,32.41
2019-05-07T13:33:45.282Z,30.97
2019-05-07T13:36:12.358Z,31.72
2019-05-07T13:38:42.662Z,30.99
2019-05-07T13:41:12.712Z,32.57
2019-05-07T13:43:40.831Z,30.83
2019-05-07T13:46:12.052Z,31.69
2019-05-07T13:48:43.054Z,33.19
2019-05-07T13:51:08.520Z,34.75
2019-05-07T13:53:34.720Z,36.32
2019-05-07T13:56:02.324Z,35.40
2019-05-07T13:58:28.898Z,33.50
2019-05-07T14:01:13.571Z,34.08
2019-05-07T14:03:39.863Z,32.00
2019-05-07T14:06:06.041Z,33.58
2019-05-07T14:08:34.284Z,33.04
2019-05-07T14:11:02.646Z,37.38
2019-05-07T14:13:28.562Z,33.86
2019-05-07T14:16:08.732Z,33.57
2019-05-07T14:18:36.643Z,34.76
2019-05-07T14:21:04.519Z,32.81
2019-05-07T14:23:32.499Z,34.39
2019-05-07T14:25:58.902Z,35.48
2019-05-07T14:28:25.064Z,33.69
2019-05-07T14:30:52.281Z,34.88
2019-05-07T14:33:36.741Z,36.89
2019-05-07T14:36:05.069Z,36.66
2019-05-07T14:38:33.134Z,35.12
2019-05-07T14:41:00.183Z,33.93
2019-05-07T14:43:29.016Z,34.82
2019-05-07T14:45:55.362Z,35.43
2019-05-07T14:48:22.593Z,36.13
2019-05-07T14:50:49.168Z,34.88
2019-05-07T14:53:15.361Z,37.30
2019-05-07T14:55:41.917Z,35.59
2019-05-07T14:58:08.965Z,34.27
2019-05-07T15:00:35.399Z,35.68
2019-05-07T15:03:02.016Z,34.88
2019-05-07T15:05:28.428Z,33.46
2019-05-07T15:08:07.387Z,36.88
2019-05-07T15:10:22.811Z,37.53
2019-05-07T15:12:49.208Z,37.02
2019-05-07T15:15:15.531Z,38.25
2019-05-07T15:17:49.185Z,36.84
2019-05-07T15:20:15.389Z,36.45
2019-05-07T15:23:02.732Z,37.58
2019-05-07T15:25:29.312Z,38.70
2019-05-07T15:27:58.292Z,39.61
2019-05-07T15:30:26.342Z,38.36
2019-05-07T15:32:52.595Z,38.37
2019-05-07T15:35:18.764Z,39.17
2019-05-07T15:37:44.928Z,37.73
2019-05-07T15:40:11.359Z,37.95
2019-05-07T15:42:37.519Z,38.43
2019-05-07T15:45:04.380Z,38.29
2019-05-07T15:47:32.500Z,36.85
2019-05-07T15:49:58.784Z,36.61
2019-05-07T15:52:26.852Z,36.91
2019-05-07T15:54:53.060Z,36.67
2019-05-07T15:57:29.291Z,37.04
2019-05-07T16:00:05.946Z,36.37
2019-05-07T16:02:34.035Z,39.76
2019-05-07T16:05:02.235Z,36.52
2019-05-07T16:07:28.432Z,37.13
2019-05-07T16:09:54.604Z,38.81
2019-05-07T16:12:22.662Z,38.29
2019-05-07T16:14:49.166Z,37.37
2019-05-07T16:17:17.278Z,38.44
2019-05-07T16:19:43.434Z,38.64
2019-05-07T16:22:12.764Z,38.10
2019-05-07T16:24:39.060Z,37.95
2019-05-07T16:27:05.381Z,37.74
2019-05-07T16:29:35.192Z,38.58
2019-05-07T16:31:59.804Z,38.59
2019-05-07T16:34:26.011Z,38.11
2019-05-07T16:36:52.205Z,38.66
2019-05-07T16:39:18.406Z,37.51
2019-05-07T16:41:44.579Z,38.39
2019-05-07T16:44:12.322Z,37.47
2019-05-07T16:46:38.789Z,38.56
2019-05-07T16:49:04.956Z,39.73
2019-05-07T16:51:33.021Z,38.21
2019-05-07T16:54:00.874Z,39.44
2019-05-07T16:56:27.305Z,40.55
2019-05-07T16:58:58.177Z,39.76
2019-05-07T17:01:24.801Z,40.08
2019-05-07T17:03:56.748Z,41.11
2019-05-07T17:06:25.178Z,40.52
2019-05-07T17:09:02.596Z,41.19
2019-05-07T17:11:29.244Z,43.12
2019-05-07T17:13:55.430Z,42.08
2019-05-07T17:16:22.855Z,42.76
2019-05-07T17:18:51.849Z,41.21
2019-05-07T17:21:18.496Z,40.94
2019-05-07T17:23:44.900Z,39.24
2019-05-07T17:26:11.771Z,39.14
2019-05-07T17:28:38.036Z,40.92
2019-05-07T17:31:04.315Z,39.68
2019-05-07T17:33:31.976Z,39.44
2019-05-07T17:35:58.403Z,39.12
2019-05-07T17:38:24.593Z,38.23
2019-05-07T17:40:52.154Z,38.63
2019-05-07T17:43:18.647Z,37.05
2019-05-07T17:45:44.931Z,38.26
2019-05-07T17:48:12.330Z,36.66
2019-05-07T17:50:58.636Z,39.57
2019-05-07T17:53:24.832Z,38.03
2019-05-07T17:55:52.869Z,38.50
2019-05-07T17:58:19.096Z,38.26
2019-05-07T18:00:47.213Z,39.56
2019-05-07T18:03:33.625Z,38.74
2019-05-07T18:06:02.239Z,38.35
2019-05-07T18:08:28.317Z,38.56
2019-05-07T18:10:55.813Z,39.71
2019-05-07T18:13:22.418Z,39.15
2019-05-07T18:15:48.892Z,39.28
2019-05-07T18:18:15.176Z,39.38
2019-05-07T18:20:42.223Z,38.91
2019-05-07T18:23:10.735Z,37.88
2019-05-07T18:25:36.677Z,38.12
2019-05-07T18:28:03.116Z,38.61
2019-05-07T18:30:29.382Z,37.97
2019-05-07T18:33:03.238Z,38.43
2019-05-07T18:35:29.476Z,39.94
2019-05-07T18:37:55.644Z,39.21
2019-05-07T18:40:21.933Z,39.28
2019-05-07T18:42:48.450Z,39.80
2019-05-07T18:45:14.724Z,40.07
2019-05-07T18:47:40.906Z,39.20
2019-05-07T18:50:07.104Z,39.32
2019-05-07T18:52:33.280Z,38.05
2019-05-07T18:54:59.560Z,38.27
2019-05-07T18:57:25.806Z,39.94
2019-05-07T18:59:53.169Z,38.87
2019-05-07T19:02:19.822Z,40.24
2019-05-07T19:04:46.182Z,39.85
2019-05-07T19:07:13.189Z,39.68
2019-05-07T19:09:39.842Z,39.00
2019-05-07T19:12:08.024Z,38.30
2019-05-07T19:14:34.330Z,40.16
2019-05-07T19:17:03.016Z,39.11
2019-05-07T19:19:28.923Z,38.16
2019-05-07T19:21:55.494Z,38.33
2019-05-07T19:24:25.844Z,36.94
2019-05-07T19:26:52.673Z,38.31
2019-05-07T19:29:19.637Z,38.34
2019-05-07T19:31:46.147Z,39.84
2019-05-07T19:34:12.961Z,40.58
2019-05-07T19:36:39.573Z,39.53
2019-05-07T19:39:06.198Z,41.41
2019-05-07T19:41:32.920Z,42.06
2019-05-07T19:44:01.893Z,41.26
2019-05-07T19:46:27.973Z,42.13
2019-05-07T19:48:54.484Z,44.78
2019-05-07T19:51:20.961Z,45.62
2019-05-07T19:53:47.122Z,44.50
2019-05-07T19:56:21.883Z,45.42
2019-05-07T19:58:48.412Z,43.25
2019-05-07T20:01:16.495Z,42.24
2019-05-07T20:03:43.453Z,43.82
2019-05-07T20:06:09.910Z,42.71
2019-05-07T20:08:36.094Z,43.05
2019-05-07T20:11:19.030Z,42.11
2019-05-07T20:13:45.285Z,41.73
2019-05-07T20:16:13.392Z,42.13
2019-05-07T20:18:39.592Z,43.07
2019-05-07T20:21:05.763Z,41.63
2019-05-07T20:23:32.737Z,43.07
2019-05-07T20:25:59.137Z,42.26
2019-05-07T20:28:25.291Z,42.50
2019-05-07T20:30:52.662Z,41.83
2019-05-07T20:33:21.849Z,43.02
2019-05-07T20:35:47.924Z,44.81
2019-05-07T20:38:14.111Z,44.22
2019-05-07T20:40:42.367Z,44.37
2019-05-07T20:43:08.909Z,41.65
2019-05-07T20:45:35.376Z,41.83
2019-05-07T20:48:02.544Z,44.23
2019-05-07T20:50:28.992Z,43.71
2019-05-07T20:52:55.272Z,43.98
2019-05-07T20:55:30.652Z,44.64
2019-05-07T20:57:53.602Z,42.64
2019-05-07T21:00:22.872Z,42.84
2019-05-07T21:02:52.477Z,42.84
2019-05-07T21:05:18.856Z,41.68
2019-05-07T21:07:45.025Z,42.97
2019-05-07T21:10:12.664Z,43.14
2019-05-07T21:12:39.007Z,42.75
2019-05-07T21:15:05.890Z,43.49
2019-05-07T21:17:32.325Z,42.70
2019-05-07T21:19:58.588Z,43.16
2019-05-07T21:22:24.742Z,44.02
2019-05-07T21:24:53.005Z,42.09
2019-05-07T21:27:19.117Z,41.54
2019-05-07T21:29:45.295Z,42.71
2019-05-07T21:32:12.430Z,44.66
2019-05-07T21:34:38.881Z,44.71
2019-05-07T21:37:08.391Z,41.60
2019-05-07T21:39:33.294Z,40.94
2019-05-07T21:41:59.452Z,41.60
2019-05-07T21:44:25.612Z,41.11
2019-05-07T21:46:51.948Z,39.26
2019-05-07T21:49:18.101Z,42.26
2019-05-07T21:51:44.961Z,42.29
2019-05-07T21:54:15.869Z,42.85
2019-05-07T21:56:55.707Z,42.57
2019-05-07T21:59:35.693Z,41.17
2019-05-07T22:02:03.155Z,41.23
2019-05-07T22:04:29.457Z,41.08
2019-05-07T22:06:55.644Z,41.43
2019-05-07T22:09:22.435Z,39.50
2019-05-07T22:11:48.787Z,40.52
2019-05-07T22:14:15.087Z,39.23
2019-05-07T22:16:41.268Z,39.63
2019-05-07T22:19:07.457Z,39.70
2019-05-07T22:21:34.276Z,39.15
2019-05-07T22:24:02.730Z,38.64
2019-05-07T22:26:28.901Z,39.11
2019-05-07T22:28:55.121Z,37.38
2019-05-07T22:31:25.695Z,41.60
2019-05-07T22:33:59.652Z,39.52
2019-05-07T22:36:25.807Z,39.91
2019-05-07T22:38:52.796Z,39.44
2019-05-07T22:41:19.097Z,38.41
2019-05-07T22:43:45.247Z,40.12
2019-05-07T22:46:12.419Z,39.76
2019-05-07T22:48:39.035Z,38.93
2019-05-07T22:51:05.212Z,38.62
2019-05-07T22:53:32.761Z,38.13
2019-05-07T22:55:59.291Z,38.74
2019-05-07T22:58:27.347Z,39.05
2019-05-07T23:01:12.942Z,38.57
2019-05-07T23:03:38.627Z,36.98
2019-05-07T23:06:07.418Z,37.71
2019-05-07T23:08:35.865Z,37.77
2019-05-07T23:11:02.833Z,38.91
2019-05-07T23:13:29.104Z,38.07
2019-05-07T23:15:55.321Z,37.73
2019-05-07T23:18:22.679Z,38.93
2019-05-07T23:20:48.971Z,37.41
2019-05-07T23:23:15.171Z,37.46
2019-05-07T23:25:43.112Z,39.16
2019-05-07T23:28:09.497Z,38.88
2019-05-07T23:30:35.894Z,38.71
2019-05-07T23:33:02.547Z,38.39
2019-05-07T23:35:28.840Z,37.58
2019-05-07T23:37:55.046Z,38.27
2019-05-07T23:40:25.897Z,37.32
2019-05-07T23:42:53.985Z,37.88
2019-05-07T23:45:22.093Z,38.87
2019-05-07T23:47:48.249Z,38.04
2019-05-07T23:50:14.438Z,36.29
2019-05-07T23:52:43.981Z,39.31
2019-05-07T23:55:08.723Z,35.51
2019-05-07T23:57:34.900Z,38.64
